FDX9 TNCA-TNCB
Flight info
| Callsign | FDX9 |
|---|---|
| Flight time | 0h 44m |
| Altitude | 7000 |
| Route | ADRIV1F ADRIV A574 PJG DCT IMOMA |
| Aircraft | C208/L-SDFGR/C |
Departure
| Time | 2026-05-07 23:49 |
|---|---|
| Airport | Queen Beatrix International Airport (TNCA) |
Arrival
| Time | 2026-05-08 00:33 |
|---|---|
| Airport | Flamingo International Airport (TNCB) |
| Time | Latitude | Longitude | Altitude | Speed | Heading |
|---|---|---|---|---|---|
| 2026-05-07 23:33 | 12.50404 | -70.01370 | 53 ft | 0 kts | 343° |
| 2026-05-07 23:44 | 12.50408 | -70.01372 | 54 ft | 0 kts | 342° |
| 2026-05-07 23:44 | 12.50412 | -70.01374 | 54 ft | 0 kts | 340° |
| 2026-05-07 23:44 | 12.50449 | -70.01315 | 56 ft | 20 kts | 108° |
| 2026-05-07 23:44 | 12.50375 | -70.01340 | 54 ft | 15 kts | 243° |
| 2026-05-07 23:45 | 12.50329 | -70.01409 | 52 ft | 11 kts | 255° |
| 2026-05-07 23:45 | 12.50317 | -70.01518 | 48 ft | 19 kts | 284° |
| 2026-05-07 23:45 | 12.50356 | -70.01677 | 42 ft | 25 kts | 283° |
| 2026-05-07 23:45 | 12.50400 | -70.01873 | 35 ft | 30 kts | 284° |
| 2026-05-07 23:46 | 12.50449 | -70.02093 | 30 ft | 33 kts | 282° |
| 2026-05-07 23:46 | 12.50508 | -70.02321 | 26 ft | 33 kts | 284° |
| 2026-05-07 23:46 | 12.50565 | -70.02546 | 24 ft | 32 kts | 285° |
| 2026-05-07 23:46 | 12.50510 | -70.02710 | 23 ft | 20 kts | 195° |
| 2026-05-07 23:47 | 12.50495 | -70.02714 | 23 ft | 0 kts | 188° |
| 2026-05-07 23:47 | 12.50486 | -70.02716 | 23 ft | 5 kts | 190° |
| 2026-05-07 23:48 | 12.50424 | -70.02694 | 23 ft | 14 kts | 115° |
| 2026-05-07 23:48 | 12.50379 | -70.02527 | 24 ft | 45 kts | 103° |
| 2026-05-07 23:48 | 12.50269 | -70.02066 | 31 ft | 84 kts | 101° |
| 2026-05-07 23:48 | 12.50088 | -70.01438 | 222 ft | 94 kts | 104° |
| 2026-05-07 23:49 | 12.49952 | -70.00838 | 452 ft | 93 kts | 100° |
| 2026-05-07 23:49 | 12.49690 | -70.00158 | 551 ft | 102 kts | 104° |
| 2026-05-07 23:49 | 12.49444 | -69.99481 | 756 ft | 99 kts | 103° |
| 2026-05-07 23:49 | 12.49312 | -69.98802 | 892 ft | 100 kts | 91° |
| 2026-05-07 23:50 | 12.49336 | -69.98115 | 1143 ft | 95 kts | 94° |
| 2026-05-07 23:50 | 12.49179 | -69.97463 | 1345 ft | 94 kts | 99° |
| 2026-05-07 23:50 | 12.48984 | -69.96837 | 1572 ft | 91 kts | 99° |
| 2026-05-07 23:50 | 12.48804 | -69.96229 | 1814 ft | 89 kts | 101° |
| 2026-05-07 23:51 | 12.48624 | -69.95630 | 2054 ft | 87 kts | 100° |
| 2026-05-07 23:51 | 12.48463 | -69.95038 | 2287 ft | 86 kts | 99° |
| 2026-05-07 23:51 | 12.48314 | -69.94451 | 2524 ft | 84 kts | 99° |
| 2026-05-07 23:51 | 12.48160 | -69.93875 | 2748 ft | 83 kts | 99° |
| 2026-05-07 23:52 | 12.48015 | -69.93313 | 2977 ft | 81 kts | 99° |
| 2026-05-07 23:52 | 12.47873 | -69.92764 | 3221 ft | 79 kts | 99° |
| 2026-05-07 23:52 | 12.47733 | -69.92223 | 3448 ft | 78 kts | 100° |
| 2026-05-07 23:52 | 12.47596 | -69.91690 | 3658 ft | 79 kts | 100° |
| 2026-05-07 23:53 | 12.47452 | -69.91126 | 3851 ft | 85 kts | 100° |
| 2026-05-07 23:53 | 12.47297 | -69.90526 | 4046 ft | 90 kts | 101° |
| 2026-05-07 23:53 | 12.47133 | -69.89892 | 4236 ft | 94 kts | 102° |
| 2026-05-07 23:53 | 12.46962 | -69.89231 | 4433 ft | 98 kts | 102° |
| 2026-05-07 23:54 | 12.46784 | -69.88547 | 4622 ft | 101 kts | 102° |
| 2026-05-07 23:54 | 12.46601 | -69.87841 | 4816 ft | 104 kts | 103° |
| 2026-05-07 23:54 | 12.46414 | -69.87121 | 5008 ft | 106 kts | 103° |
| 2026-05-07 23:54 | 12.46223 | -69.86382 | 5201 ft | 108 kts | 103° |
| 2026-05-07 23:55 | 12.46030 | -69.85632 | 5395 ft | 109 kts | 104° |
| 2026-05-07 23:55 | 12.45832 | -69.84868 | 5586 ft | 110 kts | 104° |
| 2026-05-07 23:55 | 12.45634 | -69.84104 | 5778 ft | 111 kts | 104° |
| 2026-05-07 23:55 | 12.45436 | -69.83334 | 5970 ft | 112 kts | 104° |
| 2026-05-07 23:56 | 12.45236 | -69.82561 | 6157 ft | 113 kts | 104° |
| 2026-05-07 23:56 | 12.45036 | -69.81786 | 6352 ft | 113 kts | 104° |
| 2026-05-07 23:56 | 12.44835 | -69.81010 | 6541 ft | 113 kts | 104° |
| 2026-05-07 23:56 | 12.44634 | -69.80235 | 6727 ft | 113 kts | 104° |
| 2026-05-07 23:57 | 12.44434 | -69.79460 | 6916 ft | 112 kts | 104° |
| 2026-05-07 23:57 | 12.44236 | -69.78690 | 7108 ft | 112 kts | 105° |
| 2026-05-07 23:57 | 12.44037 | -69.77924 | 7294 ft | 111 kts | 104° |
| 2026-05-07 23:57 | 12.43840 | -69.77156 | 7483 ft | 110 kts | 104° |
| 2026-05-07 23:58 | 12.43643 | -69.76398 | 7669 ft | 110 kts | 104° |
| 2026-05-07 23:58 | 12.43448 | -69.75641 | 7858 ft | 108 kts | 104° |
| 2026-05-07 23:58 | 12.43255 | -69.74896 | 8047 ft | 107 kts | 104° |
| 2026-05-07 23:58 | 12.43064 | -69.74157 | 8233 ft | 106 kts | 104° |
| 2026-05-07 23:59 | 12.42877 | -69.73430 | 8419 ft | 105 kts | 104° |
| 2026-05-07 23:59 | 12.42692 | -69.72715 | 8603 ft | 103 kts | 104° |
| 2026-05-07 23:59 | 12.42509 | -69.72009 | 8786 ft | 102 kts | 104° |
| 2026-05-07 23:59 | 12.42330 | -69.71315 | 8971 ft | 100 kts | 103° |
| 2026-05-08 00:00 | 12.42154 | -69.70632 | 9158 ft | 98 kts | 103° |
| 2026-05-08 00:00 | 12.41981 | -69.69964 | 9344 ft | 96 kts | 103° |
| 2026-05-08 00:00 | 12.41812 | -69.69311 | 9526 ft | 94 kts | 103° |
| 2026-05-08 00:00 | 12.41648 | -69.68674 | 9709 ft | 91 kts | 103° |
| 2026-05-08 00:01 | 12.41490 | -69.68059 | 9890 ft | 88 kts | 103° |
| 2026-05-08 00:01 | 12.41331 | -69.67444 | 9998 ft | 93 kts | 103° |
| 2026-05-08 00:01 | 12.41152 | -69.66753 | 10013 ft | 108 kts | 103° |
| 2026-05-08 00:01 | 12.40947 | -69.65964 | 10011 ft | 121 kts | 104° |
| 2026-05-08 00:02 | 12.40721 | -69.65098 | 10006 ft | 131 kts | 104° |
| 2026-05-08 00:02 | 12.40479 | -69.64172 | 10002 ft | 137 kts | 104° |
| 2026-05-08 00:02 | 12.40226 | -69.63204 | 10001 ft | 143 kts | 104° |
| 2026-05-08 00:02 | 12.39965 | -69.62195 | 10002 ft | 150 kts | 104° |
| 2026-05-08 00:03 | 12.39691 | -69.61147 | 10003 ft | 154 kts | 104° |
| 2026-05-08 00:03 | 12.39410 | -69.60074 | 10003 ft | 157 kts | 104° |
| 2026-05-08 00:03 | 12.39066 | -69.59008 | 10003 ft | 159 kts | 109° |
| 2026-05-08 00:03 | 12.38694 | -69.57941 | 10004 ft | 160 kts | 108° |
| 2026-05-08 00:04 | 12.38321 | -69.56867 | 10002 ft | 160 kts | 108° |
| 2026-05-08 00:04 | 12.37948 | -69.55781 | 10000 ft | 160 kts | 108° |
| 2026-05-08 00:04 | 12.37581 | -69.54701 | 10000 ft | 160 kts | 108° |
| 2026-05-08 00:04 | 12.37215 | -69.53622 | 10001 ft | 161 kts | 108° |
| 2026-05-08 00:05 | 12.36849 | -69.52540 | 10004 ft | 161 kts | 108° |
| 2026-05-08 00:05 | 12.36483 | -69.51460 | 10004 ft | 161 kts | 108° |
| 2026-05-08 00:05 | 12.36114 | -69.50377 | 10006 ft | 161 kts | 108° |
| 2026-05-08 00:05 | 12.35745 | -69.49293 | 10005 ft | 161 kts | 108° |
| 2026-05-08 00:06 | 12.35378 | -69.48211 | 10003 ft | 161 kts | 108° |
| 2026-05-08 00:06 | 12.35009 | -69.47122 | 10004 ft | 161 kts | 108° |
| 2026-05-08 00:06 | 12.34641 | -69.46033 | 10000 ft | 162 kts | 108° |
| 2026-05-08 00:06 | 12.34271 | -69.44937 | 10004 ft | 163 kts | 108° |
| 2026-05-08 00:07 | 12.33900 | -69.43841 | 10003 ft | 163 kts | 108° |
| 2026-05-08 00:07 | 12.33528 | -69.42740 | 10008 ft | 163 kts | 108° |
| 2026-05-08 00:07 | 12.33157 | -69.41642 | 10006 ft | 163 kts | 108° |
| 2026-05-08 00:07 | 12.32786 | -69.40543 | 10005 ft | 164 kts | 108° |
| 2026-05-08 00:08 | 12.32413 | -69.39440 | 10003 ft | 164 kts | 108° |
| 2026-05-08 00:08 | 12.32041 | -69.38338 | 10003 ft | 163 kts | 107° |
| 2026-05-08 00:08 | 12.31670 | -69.37238 | 10003 ft | 163 kts | 108° |
| 2026-05-08 00:08 | 12.31299 | -69.36140 | 10005 ft | 163 kts | 108° |
| 2026-05-08 00:09 | 12.30930 | -69.35031 | 10005 ft | 163 kts | 108° |
| 2026-05-08 00:09 | 12.30563 | -69.33926 | 10012 ft | 163 kts | 108° |
| 2026-05-08 00:09 | 12.30196 | -69.32817 | 10011 ft | 163 kts | 108° |
| 2026-05-08 00:09 | 12.29828 | -69.31709 | 10010 ft | 163 kts | 108° |
| 2026-05-08 00:10 | 12.29457 | -69.30592 | 10009 ft | 163 kts | 108° |
| 2026-05-08 00:10 | 12.29089 | -69.29482 | 10009 ft | 163 kts | 108° |
| 2026-05-08 00:10 | 12.28724 | -69.28384 | 10013 ft | 162 kts | 107° |
| 2026-05-08 00:10 | 12.28360 | -69.27289 | 10011 ft | 163 kts | 107° |
| 2026-05-08 00:11 | 12.27994 | -69.26187 | 10011 ft | 163 kts | 107° |
| 2026-05-08 00:11 | 12.27626 | -69.25079 | 10013 ft | 163 kts | 107° |
| 2026-05-08 00:11 | 12.27256 | -69.23966 | 10009 ft | 163 kts | 107° |
| 2026-05-08 00:11 | 12.26885 | -69.22853 | 10008 ft | 163 kts | 107° |
| 2026-05-08 00:12 | 12.26515 | -69.21739 | 10008 ft | 163 kts | 108° |
| 2026-05-08 00:12 | 12.26145 | -69.20627 | 10006 ft | 164 kts | 107° |
| 2026-05-08 00:12 | 12.25776 | -69.19518 | 9999 ft | 163 kts | 108° |
| 2026-05-08 00:12 | 12.25408 | -69.18412 | 10000 ft | 163 kts | 108° |
| 2026-05-08 00:13 | 12.25040 | -69.17309 | 9996 ft | 162 kts | 108° |
| 2026-05-08 00:13 | 12.24677 | -69.16218 | 9992 ft | 162 kts | 108° |
| 2026-05-08 00:13 | 12.24314 | -69.15127 | 9990 ft | 162 kts | 107° |
| 2026-05-08 00:13 | 12.23950 | -69.14033 | 9992 ft | 161 kts | 108° |
| 2026-05-08 00:14 | 12.23588 | -69.12946 | 9996 ft | 162 kts | 108° |
| 2026-05-08 00:14 | 12.23226 | -69.11857 | 9995 ft | 162 kts | 107° |
| 2026-05-08 00:14 | 12.22862 | -69.10769 | 9999 ft | 162 kts | 108° |
| 2026-05-08 00:14 | 12.22499 | -69.09676 | 9999 ft | 162 kts | 107° |
| 2026-05-08 00:15 | 12.22133 | -69.08581 | 9994 ft | 162 kts | 107° |
| 2026-05-08 00:15 | 12.21768 | -69.07485 | 9997 ft | 162 kts | 107° |
| 2026-05-08 00:15 | 12.21407 | -69.06394 | 9999 ft | 162 kts | 107° |
| 2026-05-08 00:15 | 12.21041 | -69.05306 | 9997 ft | 162 kts | 108° |
| 2026-05-08 00:16 | 12.20679 | -69.04214 | 10000 ft | 161 kts | 108° |
| 2026-05-08 00:16 | 12.20316 | -69.03129 | 9995 ft | 161 kts | 108° |
| 2026-05-08 00:16 | 12.19955 | -69.02042 | 10003 ft | 161 kts | 107° |
| 2026-05-08 00:16 | 12.19654 | -69.00935 | 9992 ft | 161 kts | 99° |
| 2026-05-08 00:17 | 12.19522 | -68.99797 | 9998 ft | 161 kts | 97° |
| 2026-05-08 00:17 | 12.19388 | -68.98659 | 10000 ft | 161 kts | 96° |
| 2026-05-08 00:17 | 12.19264 | -68.97510 | 10004 ft | 161 kts | 96° |
| 2026-05-08 00:17 | 12.19137 | -68.96371 | 10008 ft | 161 kts | 96° |
| 2026-05-08 00:18 | 12.19014 | -68.95231 | 10010 ft | 161 kts | 96° |
| 2026-05-08 00:18 | 12.18887 | -68.94091 | 10010 ft | 161 kts | 96° |
| 2026-05-08 00:18 | 12.18763 | -68.92949 | 10013 ft | 161 kts | 96° |
| 2026-05-08 00:18 | 12.18637 | -68.91809 | 10011 ft | 160 kts | 96° |
| 2026-05-08 00:19 | 12.18512 | -68.90674 | 10012 ft | 160 kts | 96° |
| 2026-05-08 00:19 | 12.18388 | -68.89540 | 10017 ft | 161 kts | 96° |
| 2026-05-08 00:19 | 12.18261 | -68.88402 | 10016 ft | 161 kts | 96° |
| 2026-05-08 00:19 | 12.18133 | -68.87258 | 10013 ft | 162 kts | 96° |
| 2026-05-08 00:20 | 12.18008 | -68.86115 | 9994 ft | 162 kts | 96° |
| 2026-05-08 00:20 | 12.17877 | -68.84935 | 9866 ft | 169 kts | 97° |
| 2026-05-08 00:20 | 12.17743 | -68.83716 | 9732 ft | 173 kts | 97° |
| 2026-05-08 00:20 | 12.17606 | -68.82475 | 9590 ft | 175 kts | 97° |
| 2026-05-08 00:21 | 12.17466 | -68.81226 | 9450 ft | 176 kts | 97° |
| 2026-05-08 00:21 | 12.17327 | -68.79976 | 9308 ft | 176 kts | 97° |
| 2026-05-08 00:21 | 12.17188 | -68.78721 | 9162 ft | 176 kts | 97° |
| 2026-05-08 00:21 | 12.17057 | -68.77467 | 9017 ft | 177 kts | 97° |
| 2026-05-08 00:22 | 12.16920 | -68.76214 | 8875 ft | 176 kts | 97° |
| 2026-05-08 00:22 | 12.16782 | -68.74964 | 8733 ft | 177 kts | 97° |
| 2026-05-08 00:22 | 12.16647 | -68.73710 | 8582 ft | 177 kts | 97° |
| 2026-05-08 00:22 | 12.16507 | -68.72447 | 8439 ft | 177 kts | 97° |
| 2026-05-08 00:23 | 12.16367 | -68.71198 | 8293 ft | 177 kts | 97° |
| 2026-05-08 00:23 | 12.16226 | -68.69924 | 8145 ft | 178 kts | 98° |
| 2026-05-08 00:23 | 12.16085 | -68.68660 | 7998 ft | 178 kts | 97° |
| 2026-05-08 00:23 | 12.15943 | -68.67389 | 7852 ft | 178 kts | 98° |
| 2026-05-08 00:24 | 12.15803 | -68.66125 | 7709 ft | 179 kts | 98° |
| 2026-05-08 00:24 | 12.15662 | -68.64863 | 7562 ft | 179 kts | 98° |
| 2026-05-08 00:24 | 12.15521 | -68.63598 | 7417 ft | 179 kts | 98° |
| 2026-05-08 00:24 | 12.15379 | -68.62324 | 7234 ft | 181 kts | 98° |
| 2026-05-08 00:25 | 12.15235 | -68.61027 | 6968 ft | 185 kts | 98° |
| 2026-05-08 00:25 | 12.15087 | -68.59708 | 6700 ft | 187 kts | 98° |
| 2026-05-08 00:25 | 12.14939 | -68.58372 | 6431 ft | 188 kts | 98° |
| 2026-05-08 00:25 | 12.14789 | -68.57034 | 6159 ft | 188 kts | 98° |
| 2026-05-08 00:26 | 12.14640 | -68.55707 | 5892 ft | 188 kts | 97° |
| 2026-05-08 00:26 | 12.14492 | -68.54385 | 5626 ft | 187 kts | 97° |
| 2026-05-08 00:26 | 12.14344 | -68.53064 | 5356 ft | 187 kts | 97° |
| 2026-05-08 00:26 | 12.14197 | -68.51752 | 5081 ft | 185 kts | 97° |
| 2026-05-08 00:27 | 12.14052 | -68.50448 | 4811 ft | 185 kts | 97° |
| 2026-05-08 00:27 | 12.13905 | -68.49147 | 4539 ft | 184 kts | 96° |
| 2026-05-08 00:27 | 12.13764 | -68.47853 | 4270 ft | 180 kts | 97° |
| 2026-05-08 00:27 | 12.13602 | -68.46651 | 3990 ft | 162 kts | 97° |
| 2026-05-08 00:28 | 12.13529 | -68.45535 | 3710 ft | 152 kts | 90° |
| 2026-05-08 00:28 | 12.13519 | -68.44469 | 3436 ft | 147 kts | 90° |
| 2026-05-08 00:28 | 12.13517 | -68.43435 | 3161 ft | 143 kts | 90° |
| 2026-05-08 00:28 | 12.13500 | -68.42425 | 2886 ft | 141 kts | 90° |
| 2026-05-08 00:29 | 12.13482 | -68.41439 | 2685 ft | 135 kts | 91° |
| 2026-05-08 00:29 | 12.13465 | -68.40489 | 2510 ft | 132 kts | 90° |
| 2026-05-08 00:29 | 12.13432 | -68.39560 | 2339 ft | 130 kts | 90° |
| 2026-05-08 00:29 | 12.13416 | -68.38636 | 2156 ft | 129 kts | 91° |
| 2026-05-08 00:30 | 12.13381 | -68.37725 | 2022 ft | 125 kts | 89° |
| 2026-05-08 00:30 | 12.13361 | -68.36871 | 2017 ft | 115 kts | 90° |
| 2026-05-08 00:30 | 12.13335 | -68.36074 | 2028 ft | 109 kts | 88° |
| 2026-05-08 00:30 | 12.13319 | -68.35308 | 2023 ft | 106 kts | 90° |
| 2026-05-08 00:31 | 12.13289 | -68.34555 | 1951 ft | 110 kts | 91° |
| 2026-05-08 00:31 | 12.13237 | -68.33756 | 1804 ft | 115 kts | 92° |
| 2026-05-08 00:31 | 12.13201 | -68.32923 | 1524 ft | 124 kts | 89° |
| 2026-05-08 00:31 | 12.13199 | -68.32033 | 1240 ft | 129 kts | 88° |
| 2026-05-08 00:32 | 12.13191 | -68.31094 | 937 ft | 136 kts | 90° |
| 2026-05-08 00:32 | 12.13182 | -68.30103 | 682 ft | 138 kts | 89° |
| 2026-05-08 00:32 | 12.13167 | -68.29136 | 389 ft | 128 kts | 92° |
| 2026-05-08 00:32 | 12.13128 | -68.28315 | 155 ft | 102 kts | 88° |
| 2026-05-08 00:33 | 12.13106 | -68.27752 | 67 ft | 64 kts | 90° |
| 2026-05-08 00:33 | 12.13097 | -68.27257 | 38 ft | 69 kts | 90° |
| 2026-05-08 00:33 | 12.13089 | -68.26844 | 24 ft | 43 kts | 92° |
| 2026-05-08 00:33 | 12.13069 | -68.26604 | 26 ft | 22 kts | 104° |
| 2026-05-08 00:34 | 12.13092 | -68.26597 | 26 ft | 12 kts | 259° |
| 2026-05-08 00:34 | 12.13085 | -68.26786 | 24 ft | 33 kts | 275° |
| 2026-05-08 00:34 | 12.13095 | -68.27031 | 23 ft | 35 kts | 274° |
| 2026-05-08 00:34 | 12.13102 | -68.27276 | 21 ft | 33 kts | 273° |
| 2026-05-08 00:35 | 12.13105 | -68.27493 | 20 ft | 26 kts | 271° |
| 2026-05-08 00:35 | 12.13177 | -68.27600 | 19 ft | 16 kts | 355° |
| 2026-05-08 00:35 | 12.13205 | -68.27657 | 19 ft | 9 kts | 267° |
| 2026-05-08 00:35 | 12.13207 | -68.27731 | 19 ft | 10 kts | 285° |
| 2026-05-08 00:36 | 12.13248 | -68.27721 | 19 ft | 4 kts | 34° |
| 2026-05-08 00:36 | 12.13268 | -68.27708 | 19 ft | 2 kts | 37° |
| 2026-05-08 00:36 | 12.13269 | -68.27707 | 19 ft | 0 kts | 39° |